createdAt,value
2017-07-31T00:09:12.856Z,-56
2017-07-31T00:19:12.850Z,-59
2017-07-31T00:29:12.796Z,-57
2017-07-31T00:39:12.881Z,-57
2017-07-31T00:49:12.766Z,-59
2017-07-31T00:59:12.824Z,-59
2017-07-31T01:09:12.768Z,-57
2017-07-31T01:19:12.820Z,-58
2017-07-31T01:29:12.783Z,-59
2017-07-31T01:39:12.868Z,-58
2017-07-31T01:49:12.874Z,-58
2017-07-31T01:59:12.756Z,-59
2017-07-31T02:09:12.848Z,-58
2017-07-31T02:19:12.831Z,-58
2017-07-31T02:29:12.746Z,-58
2017-07-31T02:39:12.827Z,-58
2017-07-31T02:49:12.797Z,-57
2017-07-31T02:59:12.844Z,-57
2017-07-31T03:09:12.799Z,-57
2017-07-31T03:19:12.775Z,-58
2017-07-31T03:29:12.818Z,-58
2017-07-31T03:39:12.746Z,-57
2017-07-31T03:49:12.781Z,-57
2017-07-31T03:59:12.849Z,-58
2017-07-31T04:09:12.750Z,-57
2017-07-31T04:19:12.903Z,-57
2017-07-31T04:29:12.859Z,-57
2017-07-31T04:39:12.797Z,-57
2017-07-31T04:49:12.841Z,-59
2017-07-31T04:59:12.803Z,-59
2017-07-31T05:09:12.843Z,-59
2017-07-31T05:19:12.830Z,-57
2017-07-31T05:29:12.796Z,-57
2017-07-31T05:39:12.809Z,-59
2017-07-31T05:49:12.828Z,-57
2017-07-31T05:59:12.733Z,-58
2017-07-31T06:09:12.812Z,-58
2017-07-31T06:19:12.871Z,-59
2017-07-31T06:29:12.876Z,-59
2017-07-31T06:39:12.814Z,-59
2017-07-31T06:49:12.788Z,-60
2017-07-31T06:59:12.833Z,-59
2017-07-31T07:09:14.241Z,-60
2017-07-31T07:19:12.839Z,-58
2017-07-31T07:29:12.813Z,-58
2017-07-31T07:39:12.823Z,-58
2017-07-31T07:49:12.838Z,-59
2017-07-31T07:59:12.847Z,-58
2017-07-31T08:09:12.826Z,-57
2017-07-31T08:19:12.719Z,-57
2017-07-31T08:29:13.113Z,-57
2017-07-31T08:39:12.874Z,-57
2017-07-31T08:49:12.775Z,-57
2017-07-31T08:59:12.762Z,-58
2017-07-31T09:09:12.800Z,-57
2017-07-31T09:19:12.834Z,-57
2017-07-31T09:29:12.816Z,-57
2017-07-31T09:39:12.831Z,-56
2017-07-31T09:49:12.794Z,-59
2017-07-31T09:59:12.847Z,-57
2017-07-31T10:09:12.820Z,-57
2017-07-31T10:19:12.855Z,-57
2017-07-31T10:29:12.839Z,-57
2017-07-31T10:39:12.813Z,-56
2017-07-31T10:49:12.901Z,-56
2017-07-31T10:59:12.823Z,-58
2017-07-31T11:09:12.817Z,-56
2017-07-31T11:19:12.838Z,-59
2017-07-31T11:29:12.815Z,-57
2017-07-31T11:39:12.868Z,-58
2017-07-31T11:49:12.874Z,-57
2017-07-31T11:59:13.258Z,-58
2017-07-31T12:09:13.058Z,-56
2017-07-31T12:19:12.901Z,-58
2017-07-31T12:29:12.903Z,-56
2017-07-31T12:39:12.852Z,-57
2017-07-31T12:49:12.946Z,-56
2017-07-31T12:59:13.324Z,-58
2017-07-31T13:09:12.868Z,-56
2017-07-31T13:19:12.935Z,-59
2017-07-31T13:29:12.911Z,-56
2017-07-31T13:39:12.997Z,-57
2017-07-31T13:49:12.901Z,-57
2017-07-31T13:59:13.068Z,-57
2017-07-31T14:09:12.938Z,-58
2017-07-31T14:19:12.923Z,-56
2017-07-31T14:29:12.988Z,-57
2017-07-31T14:39:13.140Z,-57
2017-07-31T14:49:13.005Z,-57
2017-07-31T14:59:13.085Z,-56
2017-07-31T15:09:12.963Z,-62
2017-07-31T15:19:12.959Z,-58
2017-07-31T15:29:12.949Z,-58
2017-07-31T15:39:13.026Z,-58
2017-07-31T15:49:13.640Z,-61
2017-07-31T15:59:12.921Z,-61
2017-07-31T16:09:13.000Z,-60
2017-07-31T16:19:12.886Z,-60
2017-07-31T16:29:12.963Z,-60
2017-07-31T16:39:13.048Z,-61
2017-07-31T16:49:12.870Z,-61
2017-07-31T16:59:12.912Z,-60
2017-07-31T17:09:12.928Z,-62
2017-07-31T17:19:12.925Z,-62
2017-07-31T17:29:12.867Z,-61
2017-07-31T17:39:13.064Z,-61
2017-07-31T17:49:12.946Z,-61
2017-07-31T17:59:12.884Z,-61
2017-07-31T18:09:12.890Z,-61
2017-07-31T18:19:12.915Z,-63
2017-07-31T18:29:12.959Z,-62
2017-07-31T18:39:12.941Z,-60
2017-07-31T18:49:12.918Z,-61
2017-07-31T18:59:13.039Z,-62
2017-07-31T19:09:12.931Z,-62
2017-07-31T19:19:12.905Z,-61
2017-07-31T19:29:12.982Z,-61
2017-07-31T19:39:12.957Z,-60
2017-07-31T19:49:12.982Z,-61
2017-07-31T19:59:13.072Z,-61
2017-07-31T20:09:12.961Z,-61
2017-07-31T20:19:13.004Z,-62
2017-07-31T20:29:12.953Z,-61
2017-07-31T20:39:12.956Z,-61
2017-07-31T20:49:12.938Z,-61
2017-07-31T20:59:12.971Z,-61
2017-07-31T21:09:13.116Z,-64
2017-07-31T21:19:13.001Z,-62
2017-07-31T21:29:12.923Z,-63
2017-07-31T21:39:13.135Z,-63
2017-07-31T21:49:13.030Z,-60
2017-07-31T21:59:13.083Z,-61
2017-07-31T22:09:13.011Z,-62
2017-07-31T22:19:12.978Z,-64
2017-07-31T22:29:13.004Z,-64
2017-07-31T22:39:12.991Z,-64
2017-07-31T22:49:13.038Z,-63
2017-07-31T22:59:13.056Z,-64
2017-07-31T23:09:13.050Z,-64
2017-07-31T23:19:13.002Z,-64
2017-07-31T23:29:13.020Z,-63
2017-07-31T23:39:13.037Z,-63
2017-07-31T23:49:12.996Z,-64
2017-07-31T23:59:12.987Z,-63
